Time;durP1;ratioP1;P1;durP2;ratioP2;P2;SDS_P1;SDS_P2;PMS_P1;PMS_P2;Temp;Humidity;BMP_temperature;BMP_pressure;BME280_temperature;BME280_humidity;BME280_pressure;Samples;Min_cycle;Max_cycle;Signal;HPM_P1;HPM_P2
2022/01/30 00:06:23;;;;;;;12.88;5.50;;;;;;;5.33;65.79;100516.09;18433119;32;20096;-73
2022/01/30 00:16:32;;;;;;;11.80;5.32;;;;;;;4.95;69.52;100511.81;18433208;32;20093;-74
2022/01/30 00:26:37;;;;;;;15.20;6.15;;;;;;;5.09;69.78;100465.53;18432771;32;20093;-74
2022/01/30 00:36:42;;;;;;;10.63;5.12;;;;;;;5.12;69.66;100428.50;18431475;32;20154;-74
2022/01/30 00:46:46;;;;;;;14.07;4.90;;;;;;;5.37;69.04;100403.97;18432208;32;20365;-74
2022/01/30 00:56:50;;;;;;;12.70;4.87;;;;;;;5.51;67.75;100401.66;18431959;32;20175;-74
2022/01/30 01:06:53;;;;;;;12.43;4.82;;;;;;;5.75;67.18;100383.94;18431464;32;20099;-74
2022/01/30 01:27:34;;;;;;;11.63;5.20;;;;;;;5.50;67.26;100323.94;18292376;32;20178;-74
2022/01/30 01:37:38;;;;;;;13.07;4.40;;;;;;;5.48;67.20;100329.09;18291822;32;20132;-74
2022/01/30 01:47:42;;;;;;;10.77;4.28;;;;;;;5.97;64.87;100303.12;18291654;32;20140;-74
2022/01/30 01:57:46;;;;;;;11.55;4.50;;;;;;;5.95;62.67;100278.03;18410857;32;20133;-74
2022/01/30 02:08:22;;;;;;;10.43;4.00;;;;;;;6.05;62.65;100255.75;18436659;32;20073;-75
2022/01/30 02:28:47;;;;;;;10.40;3.75;;;;;;;6.28;61.70;100216.31;18436494;32;20365;-75
2022/01/30 02:38:50;;;;;;;12.32;3.90;;;;;;;6.19;62.03;100209.28;18436105;32;20089;-73
2022/01/30 02:48:58;;;;;;;9.70;3.87;;;;;;;6.38;61.20;100182.72;18435584;32;20097;-74
2022/01/30 02:59:01;;;;;;;7.30;3.05;;;;;;;6.88;61.17;100182.38;18436167;32;20099;-75
2022/01/30 03:09:08;;;;;;;5.60;2.10;;;;;;;7.03;62.31;100147.91;18434755;32;20120;-74
2022/01/30 03:19:11;;;;;;;3.33;1.87;;;;;;;7.40;62.25;100150.78;18434724;32;20115;-74
2022/01/30 03:29:15;;;;;;;5.03;2.22;;;;;;;8.01;59.92;100136.38;18434225;32;20127;-75
2022/01/30 03:39:19;;;;;;;2.62;1.30;;;;;;;8.39;58.08;100126.97;18434377;32;20088;-75
2022/01/30 03:49:24;;;;;;;2.45;1.37;;;;;;;8.16;60.06;100075.78;18433691;32;20093;-75
2022/01/30 03:59:27;;;;;;;2.70;1.30;;;;;;;8.86;58.54;100081.06;18434742;32;20089;-75
2022/01/30 04:09:32;;;;;;;1.70;1.30;;;;;;;9.04;59.43;100042.00;18433224;32;20129;-75
2022/01/30 04:19:36;;;;;;;2.50;1.40;;;;;;;9.06;60.95;100030.72;18433102;32;20111;-75
2022/01/30 04:29:41;;;;;;;5.80;1.90;;;;;;;9.07;61.81;100045.50;18432787;32;20726;-75
2022/01/30 04:40:13;;;;;;;2.45;1.58;;;;;;;8.81;63.54;100043.78;18432778;32;20097;-76
2022/01/30 05:00:55;;;;;;;3.53;1.60;;;;;;;8.73;61.59;100009.94;18431824;32;20077;-75
2022/01/30 05:11:01;;;;;;;2.50;1.20;;;;;;;8.63;61.98;100031.66;18431479;32;20100;-75
2022/01/30 05:21:05;;;;;;;2.70;1.27;;;;;;;8.37;67.76;100018.56;18431017;32;20111;-75
2022/01/30 05:31:10;;;;;;;2.25;1.20;;;;;;;7.82;69.81;100034.06;18429759;32;20089;-75
2022/01/30 05:41:14;;;;;;;1.87;1.20;;;;;;;8.09;70.22;100019.41;18430167;32;20093;-75
2022/01/30 05:51:19;;;;;;;2.15;1.30;;;;;;;8.22;69.42;100066.25;18429494;32;20115;-74
2022/01/30 06:01:22;;;;;;;2.33;1.10;;;;;;;7.39;72.95;100063.34;18428979;32;20404;-74
2022/01/30 06:11:27;;;;;;;3.05;1.05;;;;;;;7.12;74.01;100058.88;18428176;32;20142;-73
2022/01/30 06:21:30;;;;;;;2.05;1.17;;;;;;;6.88;73.66;100091.56;18427607;32;20150;-75
2022/01/30 06:31:34;;;;;;;1.50;1.00;;;;;;;6.80;72.56;100100.12;18426768;32;20127;-74
2022/01/30 06:41:38;;;;;;;1.62;1.10;;;;;;;7.11;71.57;100085.66;18433200;32;20107;-75
2022/01/30 06:51:42;;;;;;;4.80;1.48;;;;;;;7.33;70.50;100073.69;18435456;32;20155;-74
2022/01/30 07:01:53;;;;;;;;;;;;;;;7.72;68.44;100069.53;18435768;32;20112;-75
2022/01/30 07:11:57;;;;;;;5.28;1.90;;;;;;;7.98;66.79;100091.31;18435497;32;19992;-75
2022/01/30 07:22:01;;;;;;;3.65;1.60;;;;;;;8.45;63.67;100100.97;18434729;32;20093;-75
2022/01/30 07:32:07;;;;;;;3.87;1.40;;;;;;;9.35;57.95;100099.25;18434533;32;20096;-75
2022/01/30 07:42:10;;;;;;;2.40;1.17;;;;;;;9.02;55.28;100109.69;18434447;32;20139;-74
2022/01/30 07:52:15;;;;;;;2.42;1.30;;;;;;;9.64;52.48;100117.44;18433598;32;20166;-75
2022/01/30 08:02:18;;;;;;;2.90;1.40;;;;;;;9.14;51.52;100147.91;18433710;32;20108;-74
2022/01/30 08:12:23;;;;;;;2.87;1.73;;;;;;;9.32;51.31;100141.78;18433343;32;20574;-74
2022/01/30 08:22:29;;;;;;;3.55;1.30;;;;;;;9.41;51.39;100139.19;18432748;32;20382;-73
2022/01/30 08:32:41;;;;;;;6.68;2.28;;;;;;;9.41;48.91;100147.00;18432718;32;20107;-75
2022/01/30 09:00:51;;;;;;;4.15;1.58;;;;;;;9.92;48.56;100171.22;18630101;31;767680;-73
2022/01/30 09:10:57;;;;;;;2.20;1.10;;;;;;;9.57;49.15;100173.88;18677162;31;20182;-73
2022/01/30 09:21:01;;;;;;;6.18;2.50;;;;;;;9.64;46.98;100151.31;18674896;31;20431;-73
2022/01/30 09:31:05;;;;;;;5.25;1.75;;;;;;;10.20;47.32;100121.53;18675531;31;20096;-72
2022/01/30 09:41:10;;;;;;;4.25;1.80;;;;;;;10.29;44.86;100126.72;18675129;31;20110;-74
2022/01/30 09:51:14;;;;;;;6.32;2.65;;;;;;;10.01;44.74;100139.88;18675907;31;20452;-72
2022/01/30 10:01:19;;;;;;;2.87;1.60;;;;;;;10.25;44.25;100153.72;18632477;31;20438;-72
2022/01/30 10:11:31;;;;;;;5.40;2.20;;;;;;;10.07;43.57;100142.47;18630217;31;20096;-72
2022/01/30 10:21:36;;;;;;;7.50;1.80;;;;;;;10.24;43.76;100171.09;18630013;31;20132;-72
2022/01/30 10:31:57;;;;;;;5.43;1.60;;;;;;;10.02;43.26;100136.41;18630868;31;20092;-72
2022/01/30 10:42:02;;;;;;;5.27;1.70;;;;;;;10.63;43.16;100149.16;18629587;31;20096;-73
2022/01/30 10:52:06;;;;;;;3.95;1.52;;;;;;;10.65;42.62;100143.06;18628805;31;20140;-72
2022/01/30 11:02:15;;;;;;;5.05;1.37;;;;;;;10.63;41.88;100131.78;18628714;31;20100;-74
2022/01/30 11:12:29;;;;;;;3.67;1.83;;;;;;;9.75;41.32;100103.50;18627526;31;20099;-74
2022/01/30 11:22:34;;;;;;;4.03;1.25;;;;;;;9.58;42.34;100133.94;18629293;31;20084;-74
2022/01/30 11:32:39;;;;;;;4.28;1.60;;;;;;;9.43;43.30;100137.44;18627767;31;20180;-74
2022/01/30 11:42:47;;;;;;;3.97;1.48;;;;;;;9.35;43.56;100138.31;18628450;31;20140;-75
2022/01/30 11:53:01;;;;;;;3.50;1.27;;;;;;;9.07;44.54;100141.81;18627141;31;20144;-74
2022/01/30 12:03:28;;;;;;;2.65;1.20;;;;;;;9.48;44.87;100147.84;18626898;31;20114;-72
2022/01/30 12:13:44;;;;;;;5.03;1.37;;;;;;;9.02;45.41;100146.16;18626911;31;20132;-71
2022/01/30 12:23:49;;;;;;;12.43;3.40;;;;;;;8.37;46.59;100149.50;18625998;31;20149;-72
2022/01/30 12:33:59;;;;;;;9.73;3.50;;;;;;;8.73;46.37;100160.91;18625750;31;20088;-72
2022/01/30 12:44:05;;;;;;;12.05;4.47;;;;;;;8.86;45.32;100132.28;18625275;31;20110;-74
2022/01/30 12:54:09;;;;;;;8.98;3.50;;;;;;;8.58;44.89;100103.62;18624557;31;20434;-74
2022/01/30 13:04:15;;;;;;;5.87;2.58;;;;;;;9.04;43.48;100107.09;18623932;31;20092;-75
2022/01/30 13:14:19;;;;;;;7.37;2.80;;;;;;;9.03;42.15;100127.06;18624084;31;20095;-74
2022/01/30 13:24:24;;;;;;;7.45;2.35;;;;;;;9.35;41.46;100152.22;18623498;31;20103;-74
2022/01/30 13:34:29;;;;;;;4.28;1.65;;;;;;;9.01;42.39;100160.94;18629763;31;20114;-75
2022/01/30 13:44:49;;;;;;;6.53;2.10;;;;;;;8.89;43.39;100153.09;18630861;31;20418;-72
2022/01/30 13:55:00;;;;;;;8.05;1.62;;;;;;;8.74;43.64;100182.56;18630809;31;20096;-72
2022/01/30 14:05:25;;;;;;;4.80;1.60;;;;;;;8.57;42.40;100170.38;18630501;31;20181;-72
2022/01/30 14:15:28;;;;;;;7.75;2.15;;;;;;;8.46;42.78;100185.06;18630186;31;20111;-71
2022/01/30 14:25:33;;;;;;;7.18;2.30;;;;;;;8.78;43.42;100205.16;18483168;31;20112;-72
2022/01/30 14:35:37;;;;;;;6.47;2.05;;;;;;;8.62;42.20;100211.19;18434702;32;20100;-72
2022/01/30 14:45:45;;;;;;;4.90;1.60;;;;;;;8.52;42.48;100225.88;18434141;32;20150;-71
2022/01/30 14:55:48;;;;;;;8.30;2.78;;;;;;;8.44;41.90;100231.91;18434098;32;20412;-71
2022/01/30 15:05:53;;;;;;;7.18;2.87;;;;;;;8.53;42.18;100240.63;18432463;32;20111;-71
2022/01/30 15:15:58;;;;;;;4.55;1.83;;;;;;;8.43;41.54;100222.34;18431355;32;20162;-68
2022/01/30 15:26:02;;;;;;;11.93;3.15;;;;;;;8.07;41.11;100229.12;18432448;32;20139;-70
2022/01/30 15:36:06;;;;;;;9.20;2.90;;;;;;;8.60;40.38;100238.06;18434388;32;20190;-70
2022/01/30 15:56:32;;;;;;;7.15;2.37;;;;;;;8.38;41.25;100246.59;18431393;32;20436;-70
2022/01/30 16:06:37;;;;;;;5.43;1.75;;;;;;;8.21;41.66;100263.03;18429037;32;20089;-69
2022/01/30 16:16:41;;;;;;;5.07;1.90;;;;;;;8.02;41.24;100256.81;18430653;32;20481;-67
2022/01/30 16:26:45;;;;;;;5.75;2.03;;;;;;;7.75;41.52;100272.25;18428527;32;20092;-68
2022/01/30 16:36:49;;;;;;;9.52;2.72;;;;;;;7.74;42.08;100285.22;18429751;32;20515;-68
2022/01/30 16:47:16;;;;;;;6.03;1.77;;;;;;;7.66;42.83;100320.66;18430204;32;20136;-67
2022/01/30 16:57:19;;;;;;;9.93;2.58;;;;;;;7.51;42.84;100324.87;18430475;32;20188;-68
2022/01/30 17:07:28;;;;;;;10.52;2.92;;;;;;;7.57;42.98;100329.28;18432979;32;20453;-69
2022/01/30 17:17:35;;;;;;;7.90;2.37;;;;;;;7.57;42.37;100353.50;18437042;32;20070;-68
2022/01/30 17:27:39;;;;;;;8.70;2.92;;;;;;;7.59;42.22;100335.34;18436759;32;20081;-67
2022/01/30 17:37:43;;;;;;;7.15;2.12;;;;;;;7.28;43.63;100343.69;18436319;32;20771;-67
2022/01/30 17:47:47;;;;;;;9.23;2.42;;;;;;;7.44;42.04;100357.69;18435883;32;20733;-68
2022/01/30 17:57:53;;;;;;;10.15;2.22;;;;;;;7.64;41.13;100363.09;18435805;32;20110;-67
2022/01/30 18:07:58;;;;;;;9.85;2.75;;;;;;;7.66;40.28;100357.03;18435728;32;20096;-68
2022/01/30 18:18:01;;;;;;;9.00;2.80;;;;;;;7.57;40.40;100358.69;18434979;32;20089;-68
2022/01/30 18:28:05;;;;;;;8.15;2.10;;;;;;;7.52;40.52;100363.00;18435044;32;20101;-67
2022/01/30 18:38:30;;;;;;;8.32;2.53;;;;;;;7.60;40.19;100376.94;18435059;32;20121;-67
2022/01/30 18:48:33;;;;;;;12.07;2.83;;;;;;;7.44;40.42;100395.81;18434572;32;20441;-68
2022/01/30 18:58:37;;;;;;;9.60;2.33;;;;;;;7.45;40.51;100393.25;18434148;32;20094;-68
2022/01/30 19:08:41;;;;;;;8.43;2.45;;;;;;;7.23;40.98;100371.34;18433941;32;20089;-67
2022/01/30 19:18:45;;;;;;;9.40;2.03;;;;;;;7.27;40.73;100370.53;18433799;32;20234;-68
2022/01/30 19:28:49;;;;;;;10.63;2.53;;;;;;;6.97;41.52;100358.94;18432512;32;20161;-66
2022/01/30 19:38:53;;;;;;;8.98;2.40;;;;;;;7.21;40.80;100386.06;18433603;32;20105;-67
2022/01/30 19:48:57;;;;;;;9.20;2.20;;;;;;;6.71;41.51;100359.47;18432813;32;20093;-68
2022/01/30 19:59:02;;;;;;;8.25;2.15;;;;;;;6.83;41.03;100376.06;18428220;32;20140;-67
2022/01/30 20:09:06;;;;;;;12.80;2.50;;;;;;;7.01;41.52;100357.25;18428965;32;20088;-67
2022/01/30 20:19:09;;;;;;;11.05;2.17;;;;;;;6.77;42.03;100364.75;18430598;32;20133;-67
2022/01/30 20:29:14;;;;;;;11.27;2.22;;;;;;;6.77;42.24;100359.56;18430161;32;20085;-66
2022/01/30 20:39:17;;;;;;;11.23;2.25;;;;;;;6.71;42.48;100374.19;18429646;32;20137;-65
2022/01/30 20:49:26;;;;;;;13.57;3.70;;;;;;;6.60;42.42;100358.47;18428567;32;20447;-67
2022/01/30 20:59:30;;;;;;;15.88;3.97;;;;;;;6.87;41.80;100354.50;18427376;32;20124;-67
2022/01/30 21:09:38;;;;;;;10.07;2.58;;;;;;;7.00;41.75;100382.31;18426927;32;20093;-66
2022/01/30 21:19:41;;;;;;;13.65;3.50;;;;;;;6.57;42.42;100380.03;18425999;32;20100;-67
2022/01/30 21:29:46;;;;;;;8.98;2.25;;;;;;;6.81;41.92;100386.44;18425418;32;20092;-67
2022/01/30 21:39:49;;;;;;;11.40;3.03;;;;;;;6.65;42.38;100390.53;18425682;32;20112;-67
2022/01/30 21:49:54;;;;;;;11.30;2.25;;;;;;;6.27;42.78;100409.87;18425921;32;20093;-66
2022/01/30 21:59:57;;;;;;;11.82;2.90;;;;;;;6.38;42.41;100418.69;18435871;32;20158;-66
2022/01/30 22:10:08;;;;;;;7.87;2.37;;;;;;;6.37;43.23;100390.16;18436549;32;20128;-67
2022/01/30 22:20:13;;;;;;;11.95;3.30;;;;;;;6.29;43.59;100392.59;18435341;32;20107;-67
2022/01/30 22:30:20;;;;;;;10.52;2.47;;;;;;;6.07;43.67;100388.81;18435038;32;20481;-66
2022/01/30 22:40:24;;;;;;;9.32;2.60;;;;;;;6.06;44.02;100376.69;18434785;32;20111;-66
2022/01/30 22:50:30;;;;;;;13.30;2.20;;;;;;;5.93;44.44;100379.06;18434506;32;20084;-66
2022/01/30 23:00:35;;;;;;;9.10;2.80;;;;;;;6.19;44.01;100378.66;18433958;32;20150;-66
2022/01/30 23:10:40;;;;;;;7.90;1.95;;;;;;;5.83;44.93;100410.84;18434015;32;20111;-66
2022/01/30 23:20:43;;;;;;;11.43;2.50;;;;;;;5.86;44.71;100416.06;18433704;32;20101;-66
2022/01/30 23:30:50;;;;;;;10.02;2.85;;;;;;;6.10;43.85;100438.13;18433428;32;20111;-66
2022/01/30 23:40:53;;;;;;;10.45;2.75;;;;;;;6.15;43.97;100425.22;18433178;32;20107;-67
2022/01/30 23:50:58;;;;;;;14.38;3.00;;;;;;;5.76;45.15;100434.91;18432547;32;20092;-66
